CheckWX is a tool to help pilots better visualize weather data.  It is not intended as a substitute for an official pre-flight weather briefing.

07:51:11 UTC

LDSP METAR
Split Airport
Split, Croatia
Current

21 mins ago

LDSP 270730Z 33015KT CAVOK 07/M03 Q1008 NOSIG
Observed
Feb-27 @ 07:30 UTC
Wind
  • 330° at 15 KTS
Visibility
10,000+ meters
Flight Rules
VFR
Cloud Levels
  • Clear skies
Temperature
C / 45°F
Dewpoint
-3°C / 27°F
Humidity
49%
Altimeter
29.76" Hg
Pressure
1007.92 hPa
Previous

51 mins ago

LDSP 270700Z 33015KT CAVOK 08/M03 Q1008 NOSIG
Observed
Feb-27 @ 07:00 UTC
Wind
  • 330° at 15 KTS
Visibility
10,000+ meters
Flight Rules
VFR
Cloud Levels
  • Clear skies
Temperature
C / 46°F
Dewpoint
-3°C / 27°F
Humidity
46%
Altimeter
29.76" Hg
Pressure
1007.92 hPa
Previous

1 hour ago

LDSP 270630Z 33015KT CAVOK 07/M03 Q1007 NOSIG
Observed
Feb-27 @ 06:30 UTC
Wind
  • 330° at 15 KTS
Visibility
10,000+ meters
Flight Rules
VFR
Cloud Levels
  • Clear skies
Temperature
C / 45°F
Dewpoint
-3°C / 27°F
Humidity
49%
Altimeter
29.73" Hg
Pressure
1006.92 hPa